sensor_id;sensor_type;location;lat;lon;timestamp;P1;durP1;ratioP1;P2;durP2;ratioP2
57321;SDS011;43159;51.006;18.224;2023-06-10T00:08:14;19.80;;;12.70;;
57321;SDS011;43159;51.006;18.224;2023-06-10T00:18:03;21.80;;;12.60;;
57321;SDS011;43159;51.006;18.224;2023-06-10T00:27:48;23.40;;;14.80;;
57321;SDS011;43159;51.006;18.224;2023-06-10T00:37:31;28.80;;;14.50;;
57321;SDS011;43159;51.006;18.224;2023-06-10T00:47:18;19.80;;;14.60;;
57321;SDS011;43159;51.006;18.224;2023-06-10T00:57:04;26.10;;;13.30;;
57321;SDS011;43159;51.006;18.224;2023-06-10T01:17:04;27.90;;;16.70;;
57321;SDS011;43159;51.006;18.224;2023-06-10T01:26:54;19.40;;;13.00;;
57321;SDS011;43159;51.006;18.224;2023-06-10T01:36:46;22.10;;;13.50;;
57321;SDS011;43159;51.006;18.224;2023-06-10T01:46:36;17.10;;;11.10;;
57321;SDS011;43159;51.006;18.224;2023-06-10T01:56:17;33.30;;;14.40;;
57321;SDS011;43159;51.006;18.224;2023-06-10T02:06:04;20.80;;;14.30;;
57321;SDS011;43159;51.006;18.224;2023-06-10T02:15:46;22.20;;;14.40;;
57321;SDS011;43159;51.006;18.224;2023-06-10T02:25:31;21.40;;;15.10;;
57321;SDS011;43159;51.006;18.224;2023-06-10T02:35:13;19.30;;;13.00;;
57321;SDS011;43159;51.006;18.224;2023-06-10T02:44:57;26.40;;;15.60;;
57321;SDS011;43159;51.006;18.224;2023-06-10T02:54:39;32.20;;;13.40;;
57321;SDS011;43159;51.006;18.224;2023-06-10T03:04:24;23.30;;;15.80;;
57321;SDS011;43159;51.006;18.224;2023-06-10T03:14:06;18.10;;;13.30;;
57321;SDS011;43159;51.006;18.224;2023-06-10T03:23:48;18.80;;;12.70;;
57321;SDS011;43159;51.006;18.224;2023-06-10T03:33:31;17.50;;;11.90;;
57321;SDS011;43159;51.006;18.224;2023-06-10T03:43:14;13.40;;;7.30;;
57321;SDS011;43159;51.006;18.224;2023-06-10T03:52:59;17.00;;;10.70;;
57321;SDS011;43159;51.006;18.224;2023-06-10T04:02:43;20.10;;;10.80;;
57321;SDS011;43159;51.006;18.224;2023-06-10T04:12:32;22.10;;;10.30;;
57321;SDS011;43159;51.006;18.224;2023-06-10T04:22:15;18.30;;;10.50;;
57321;SDS011;43159;51.006;18.224;2023-06-10T04:31:59;14.60;;;9.90;;
57321;SDS011;43159;51.006;18.224;2023-06-10T04:41:43;15.00;;;8.20;;
57321;SDS011;43159;51.006;18.224;2023-06-10T04:51:27;19.30;;;10.10;;
57321;SDS011;43159;51.006;18.224;2023-06-10T05:01:10;13.60;;;7.70;;
57321;SDS011;43159;51.006;18.224;2023-06-10T05:10:51;12.30;;;6.40;;
57321;SDS011;43159;51.006;18.224;2023-06-10T05:20:37;14.50;;;6.10;;
57321;SDS011;43159;51.006;18.224;2023-06-10T05:30:20;10.50;;;5.10;;
57321;SDS011;43159;51.006;18.224;2023-06-10T05:40:03;13.00;;;6.10;;
57321;SDS011;43159;51.006;18.224;2023-06-10T05:49:48;13.20;;;5.20;;
57321;SDS011;43159;51.006;18.224;2023-06-10T06:06:52;9.60;;;4.30;;
57321;SDS011;43159;51.006;18.224;2023-06-10T06:16:34;15.60;;;4.90;;
57321;SDS011;43159;51.006;18.224;2023-06-10T06:26:16;19.00;;;6.00;;
57321;SDS011;43159;51.006;18.224;2023-06-10T06:35:58;12.90;;;4.70;;
57321;SDS011;43159;51.006;18.224;2023-06-10T06:45:44;11.60;;;6.00;;
57321;SDS011;43159;51.006;18.224;2023-06-10T06:55:27;9.40;;;3.80;;
57321;SDS011;43159;51.006;18.224;2023-06-10T07:05:10;10.70;;;4.90;;
57321;SDS011;43159;51.006;18.224;2023-06-10T07:14:52;8.90;;;3.80;;
57321;SDS011;43159;51.006;18.224;2023-06-10T07:24:35;10.80;;;5.60;;
57321;SDS011;43159;51.006;18.224;2023-06-10T07:34:19;12.80;;;7.10;;
57321;SDS011;43159;51.006;18.224;2023-06-10T07:44:01;11.90;;;5.20;;
57321;SDS011;43159;51.006;18.224;2023-06-10T07:53:45;10.50;;;5.90;;
57321;SDS011;43159;51.006;18.224;2023-06-10T08:03:28;10.00;;;4.80;;
57321;SDS011;43159;51.006;18.224;2023-06-10T08:13:10;10.60;;;5.10;;
57321;SDS011;43159;51.006;18.224;2023-06-10T08:22:51;10.00;;;4.90;;
57321;SDS011;43159;51.006;18.224;2023-06-10T08:32:36;14.40;;;4.80;;
57321;SDS011;43159;51.006;18.224;2023-06-10T08:42:24;10.70;;;3.40;;
57321;SDS011;43159;51.006;18.224;2023-06-10T08:52:16;9.10;;;3.90;;
57321;SDS011;43159;51.006;18.224;2023-06-10T09:02:11;6.10;;;2.40;;
57321;SDS011;43159;51.006;18.224;2023-06-10T09:11:55;15.10;;;4.80;;
57321;SDS011;43159;51.006;18.224;2023-06-10T09:21:39;8.70;;;3.60;;
57321;SDS011;43159;51.006;18.224;2023-06-10T09:31:29;9.50;;;3.80;;
57321;SDS011;43159;51.006;18.224;2023-06-10T09:41:16;7.50;;;3.40;;
57321;SDS011;43159;51.006;18.224;2023-06-10T09:51:11;9.60;;;4.40;;
57321;SDS011;43159;51.006;18.224;2023-06-10T10:01:09;10.90;;;4.70;;
57321;SDS011;43159;51.006;18.224;2023-06-10T10:11:06;6.80;;;2.50;;
57321;SDS011;43159;51.006;18.224;2023-06-10T10:20:57;10.40;;;4.60;;
57321;SDS011;43159;51.006;18.224;2023-06-10T10:30:54;9.60;;;4.50;;
57321;SDS011;43159;51.006;18.224;2023-06-10T10:40:39;10.50;;;4.70;;
57321;SDS011;43159;51.006;18.224;2023-06-10T10:50:22;8.80;;;4.00;;
57321;SDS011;43159;51.006;18.224;2023-06-10T11:00:10;16.90;;;4.80;;
57321;SDS011;43159;51.006;18.224;2023-06-10T11:20:00;16.60;;;7.50;;
57321;SDS011;43159;51.006;18.224;2023-06-10T11:39:44;9.80;;;5.00;;
57321;SDS011;43159;51.006;18.224;2023-06-10T11:49:28;9.80;;;4.40;;
57321;SDS011;43159;51.006;18.224;2023-06-10T11:59:13;10.90;;;5.00;;
57321;SDS011;43159;51.006;18.224;2023-06-10T12:09:22;7.30;;;4.40;;
57321;SDS011;43159;51.006;18.224;2023-06-10T12:19:13;9.30;;;3.40;;
57321;SDS011;43159;51.006;18.224;2023-06-10T12:29:38;19.90;;;3.80;;
57321;SDS011;43159;51.006;18.224;2023-06-10T12:39:18;8.40;;;3.20;;
57321;SDS011;43159;51.006;18.224;2023-06-10T12:49:05;9.50;;;3.20;;
57321;SDS011;43159;51.006;18.224;2023-06-10T12:58:47;8.90;;;3.90;;
57321;SDS011;43159;51.006;18.224;2023-06-10T13:15:49;12.80;;;4.30;;
57321;SDS011;43159;51.006;18.224;2023-06-10T13:25:34;21.80;;;3.40;;
57321;SDS011;43159;51.006;18.224;2023-06-10T13:35:17;6.80;;;2.70;;
57321;SDS011;43159;51.006;18.224;2023-06-10T13:45:01;7.80;;;2.30;;
57321;SDS011;43159;51.006;18.224;2023-06-10T14:02:02;7.60;;;1.90;;
57321;SDS011;43159;51.006;18.224;2023-06-10T14:11:45;9.70;;;3.70;;
57321;SDS011;43159;51.006;18.224;2023-06-10T14:21:30;9.70;;;3.80;;
57321;SDS011;43159;51.006;18.224;2023-06-10T14:31:13;11.50;;;4.10;;
57321;SDS011;43159;51.006;18.224;2023-06-10T14:40:55;10.80;;;3.70;;
57321;SDS011;43159;51.006;18.224;2023-06-10T14:48:12;11.30;;;3.60;;
57321;SDS011;43159;51.006;18.224;2023-06-10T14:57:56;8.50;;;2.70;;
57321;SDS011;43159;51.006;18.224;2023-06-10T15:07:42;9.40;;;3.00;;
57321;SDS011;43159;51.006;18.224;2023-06-10T15:17:24;8.90;;;3.00;;
57321;SDS011;43159;51.006;18.224;2023-06-10T15:27:07;9.40;;;2.90;;
57321;SDS011;43159;51.006;18.224;2023-06-10T15:36:50;12.90;;;3.80;;
57321;SDS011;43159;51.006;18.224;2023-06-10T15:46:32;8.60;;;3.30;;
57321;SDS011;43159;51.006;18.224;2023-06-10T15:56:15;7.90;;;3.00;;
57321;SDS011;43159;51.006;18.224;2023-06-10T16:06:00;8.60;;;3.40;;
57321;SDS011;43159;51.006;18.224;2023-06-10T16:15:43;15.10;;;3.00;;
57321;SDS011;43159;51.006;18.224;2023-06-10T16:25:29;9.10;;;3.20;;
57321;SDS011;43159;51.006;18.224;2023-06-10T16:35:12;8.90;;;3.20;;
57321;SDS011;43159;51.006;18.224;2023-06-10T16:44:55;14.20;;;3.90;;
57321;SDS011;43159;51.006;18.224;2023-06-10T16:54:37;8.90;;;2.70;;
57321;SDS011;43159;51.006;18.224;2023-06-10T17:04:19;8.50;;;3.20;;
57321;SDS011;43159;51.006;18.224;2023-06-10T17:14:02;12.50;;;3.10;;
57321;SDS011;43159;51.006;18.224;2023-06-10T17:23:45;8.70;;;3.20;;
57321;SDS011;43159;51.006;18.224;2023-06-10T17:31:02;12.40;;;4.20;;
57321;SDS011;43159;51.006;18.224;2023-06-10T17:40:45;17.30;;;2.90;;
57321;SDS011;43159;51.006;18.224;2023-06-10T17:50:27;9.30;;;2.90;;
57321;SDS011;43159;51.006;18.224;2023-06-10T18:00:10;8.00;;;3.00;;
57321;SDS011;43159;51.006;18.224;2023-06-10T18:09:53;9.10;;;3.50;;
57321;SDS011;43159;51.006;18.224;2023-06-10T18:19:35;6.80;;;2.80;;
57321;SDS011;43159;51.006;18.224;2023-06-10T18:29:17;9.70;;;3.60;;
57321;SDS011;43159;51.006;18.224;2023-06-10T18:38:59;16.00;;;7.20;;
57321;SDS011;43159;51.006;18.224;2023-06-10T18:48:46;11.60;;;4.60;;
57321;SDS011;43159;51.006;18.224;2023-06-10T18:58:30;13.70;;;7.40;;
57321;SDS011;43159;51.006;18.224;2023-06-10T19:08:17;9.80;;;4.20;;
57321;SDS011;43159;51.006;18.224;2023-06-10T19:18:01;11.70;;;4.00;;
57321;SDS011;43159;51.006;18.224;2023-06-10T19:27:45;10.90;;;3.80;;
57321;SDS011;43159;51.006;18.224;2023-06-10T19:37:29;12.20;;;5.00;;
57321;SDS011;43159;51.006;18.224;2023-06-10T19:47:12;10.60;;;4.80;;
57321;SDS011;43159;51.006;18.224;2023-06-10T19:57:00;9.00;;;3.30;;
57321;SDS011;43159;51.006;18.224;2023-06-10T20:04:20;15.90;;;8.70;;
57321;SDS011;43159;51.006;18.224;2023-06-10T20:14:02;16.50;;;5.90;;
57321;SDS011;43159;51.006;18.224;2023-06-10T20:23:46;15.60;;;7.60;;
57321;SDS011;43159;51.006;18.224;2023-06-10T20:33:29;11.00;;;4.50;;
57321;SDS011;43159;51.006;18.224;2023-06-10T20:43:12;12.60;;;5.40;;
57321;SDS011;43159;51.006;18.224;2023-06-10T20:52:57;16.80;;;5.50;;
57321;SDS011;43159;51.006;18.224;2023-06-10T21:02:39;13.50;;;6.10;;
57321;SDS011;43159;51.006;18.224;2023-06-10T21:12:22;10.80;;;4.50;;
57321;SDS011;43159;51.006;18.224;2023-06-10T21:22:04;11.70;;;5.30;;
57321;SDS011;43159;51.006;18.224;2023-06-10T21:31:46;18.20;;;6.20;;
57321;SDS011;43159;51.006;18.224;2023-06-10T21:41:28;10.90;;;5.20;;
57321;SDS011;43159;51.006;18.224;2023-06-10T21:51:12;10.70;;;5.50;;
57321;SDS011;43159;51.006;18.224;2023-06-10T22:00:54;17.70;;;6.20;;
57321;SDS011;43159;51.006;18.224;2023-06-10T22:03:20;17.00;;;9.40;;
57321;SDS011;43159;51.006;18.224;2023-06-10T22:13:06;11.90;;;6.20;;
57321;SDS011;43159;51.006;18.224;2023-06-10T22:22:54;8.10;;;3.40;;
57321;SDS011;43159;51.006;18.224;2023-06-10T22:32:37;13.70;;;6.30;;
57321;SDS011;43159;51.006;18.224;2023-06-10T22:42:24;17.00;;;6.70;;
57321;SDS011;43159;51.006;18.224;2023-06-10T22:52:07;13.60;;;6.30;;
57321;SDS011;43159;51.006;18.224;2023-06-10T23:01:50;12.40;;;6.00;;
57321;SDS011;43159;51.006;18.224;2023-06-10T23:11:33;11.90;;;6.20;;
57321;SDS011;43159;51.006;18.224;2023-06-10T23:21:19;14.00;;;6.90;;
57321;SDS011;43159;51.006;18.224;2023-06-10T23:31:08;12.70;;;6.60;;
57321;SDS011;43159;51.006;18.224;2023-06-10T23:40:50;16.50;;;7.90;;
57321;SDS011;43159;51.006;18.224;2023-06-10T23:50:33;13.80;;;7.60;;
